This is the latest recevied weather packets stored in our database for station/object OE1HTB-13. If no packets are shown the sender has not sent any weather packets the latest 10 day(s).
| Time | Temp. | Humidity | Pressure | Rain* | Wind** | Luminosity | Snow |
|---|---|---|---|---|---|---|---|
| 1777870871 | 12.78° C | 68% | 1013.4 hPa | 0 mm | - | 200 W/m² | - |
| 1777869971 | 11.67° C | 70% | 1013.3 hPa | 0 mm | - | 111 W/m² | - |
| 1777869072 | 11.11° C | 73% | 1013.2 hPa | 0 mm | - | 58 W/m² | - |
| 1777868173 | 10.56° C | 72% | 1013.2 hPa | 0 mm | - | 39 W/m² | - |
| 1777867271 | 10.56° C | 72% | 1013.2 hPa | 0 mm | - | 25 W/m² | - |
| 1777866370 | 10.56° C | 70% | 1013.2 hPa | 0 mm | - | 14 W/m² | - |
| 1777865470 | 11.11° C | 69% | 1013.3 hPa | 0 mm | - | 5 W/m² | - |
| 1777864570 | 11.11° C | 68% | 1013.2 hPa | 0 mm | - | 0 W/m² | - |
| 1777863671 | 11.11° C | 68% | 1013.4 hPa | 0 mm | - | 0 W/m² | - |
| 1777862770 | 11.11° C | 68% | 1013.3 hPa | 0 mm | - | 0 W/m² | - |
| 1777861870 | 11.11° C | 68% | 1013.3 hPa | 0 mm | - | 0 W/m² | - |
| 1777860970 | 11.11° C | 68% | 1013.2 hPa | 0 mm | - | 0 W/m² | - |
| 1777860070 | 11.67° C | 66% | 1013.2 hPa | 0 mm | - | 0 W/m² | - |
| 1777859169 | 11.67° C | 64% | 1013.1 hPa | 0 mm | - | 0 W/m² | - |
| 1777858274 | 11.67° C | 64% | 1013.1 hPa | 0 mm | - | 0 W/m² | - |
| 1777857374 | 11.67° C | 63% | 1013.1 hPa | 0 mm | - | 0 W/m² | - |
| 1777856474 | 12.22° C | 62% | 1013.1 hPa | 0 mm | - | 0 W/m² | - |
| 1777855574 | 12.78° C | 61% | 1013.1 hPa | 0 mm | - | 0 W/m² | - |
| 1777854673 | 12.78° C | 59% | 1013 hPa | 0 mm | - | 0 W/m² | - |
| 1777853774 | 12.78° C | 60% | 1013 hPa | 0 mm | - | 0 W/m² | - |
| 1777852874 | 13.33° C | 59% | 1013.2 hPa | 0 mm | - | 0 W/m² | - |
| 1777851973 | 13.33° C | 58% | 1013.2 hPa | 0 mm | - | 0 W/m² | - |
| 1777851073 | 13.89° C | 57% | 1013.3 hPa | 0 mm | - | 0 W/m² | - |
| 1777850173 | 13.89° C | 56% | 1013.5 hPa | 0 mm | - | 0 W/m² | - |
| 1777849273 | 13.89° C | 55% | 1013.6 hPa | 0 mm | - | 0 W/m² | - |
* Rain latest hour (hover to see other rain measurements)
** Current wind speed in m/s (hover to see current wind gust speed)